createdAt,value
2023-06-01T00:01:45.557Z,16.87
2023-06-01T00:04:13.817Z,16.85
2023-06-01T00:06:42.602Z,16.81
2023-06-01T00:09:10.560Z,16.80
2023-06-01T00:11:39.672Z,16.78
2023-06-01T00:14:07.619Z,16.75
2023-06-01T00:16:36.232Z,16.70
2023-06-01T00:19:05.557Z,16.69
2023-06-01T00:21:35.457Z,16.67
2023-06-01T00:24:04.856Z,16.59
2023-06-01T00:26:34.263Z,16.59
2023-06-01T00:29:02.668Z,16.57
2023-06-01T00:31:30.777Z,16.56
2023-06-01T00:33:58.709Z,16.56
2023-06-01T00:36:26.589Z,16.55
2023-06-01T00:38:54.504Z,16.54
2023-06-01T00:41:23.231Z,16.49
2023-06-01T00:43:51.124Z,16.44
2023-06-01T00:46:19.125Z,16.41
2023-06-01T00:48:47.491Z,16.39
2023-06-01T00:51:17.521Z,16.37
2023-06-01T00:53:45.999Z,16.33
2023-06-01T00:56:16.704Z,16.30
2023-06-01T00:58:45.681Z,16.24
2023-06-01T01:01:21.265Z,16.22
2023-06-01T01:03:52.233Z,16.19
2023-06-01T01:07:03.354Z,16.17
2023-06-01T01:09:44.302Z,16.10
2023-06-01T01:12:55.131Z,16.06
2023-06-01T01:15:28.039Z,16.06
2023-06-01T01:18:13.515Z,16.02
2023-06-01T01:20:46.218Z,15.99
2023-06-01T01:23:22.896Z,15.99
2023-06-01T01:26:17.570Z,15.94
2023-06-01T01:28:55.275Z,15.90
2023-06-01T01:31:26.697Z,15.90
2023-06-01T01:33:58.009Z,15.90
2023-06-01T01:36:26.852Z,15.87
2023-06-01T01:38:54.896Z,15.84
2023-06-01T01:41:24.468Z,15.85
2023-06-01T01:43:53.245Z,15.84
2023-06-01T01:46:30.616Z,15.83
2023-06-01T01:49:13.560Z,15.84
2023-06-01T01:51:56.992Z,15.82
2023-06-01T01:54:26.922Z,15.84
2023-06-01T01:56:59.187Z,15.82
2023-06-01T01:59:29.292Z,15.78
2023-06-01T02:01:58.393Z,15.79
2023-06-01T02:04:26.359Z,15.76
2023-06-01T02:06:54.484Z,15.75
2023-06-01T02:09:22.744Z,15.75
2023-06-01T02:11:50.720Z,15.74
2023-06-01T02:14:18.585Z,15.73
2023-06-01T02:16:47.155Z,15.73
2023-06-01T02:19:17.980Z,15.74
2023-06-01T02:21:45.944Z,15.73
2023-06-01T02:24:14.930Z,15.70
2023-06-01T02:26:42.886Z,15.71
2023-06-01T02:29:10.874Z,15.68
2023-06-01T02:31:38.873Z,15.66
2023-06-01T02:34:07.749Z,15.64
2023-06-01T02:36:36.925Z,15.61
2023-06-01T02:39:05.174Z,15.61
2023-06-01T02:41:33.142Z,15.56
2023-06-01T02:44:01.091Z,15.58
2023-06-01T02:46:29.270Z,15.55
2023-06-01T02:48:57.579Z,15.50
2023-06-01T02:51:25.683Z,15.44
2023-06-01T02:53:53.767Z,15.41
2023-06-01T02:56:21.775Z,15.39
2023-06-01T02:58:49.649Z,15.34
2023-06-01T03:01:17.660Z,15.34
2023-06-01T03:03:46.861Z,15.34
2023-06-01T03:06:15.604Z,15.32
2023-06-01T03:08:43.560Z,15.32
2023-06-01T03:11:11.454Z,15.26
2023-06-01T03:13:39.369Z,15.22
2023-06-01T03:16:07.354Z,15.19
2023-06-01T03:18:38.026Z,15.16
2023-06-01T03:21:06.932Z,15.15
2023-06-01T03:23:34.950Z,15.15
2023-06-01T03:26:02.926Z,15.13
2023-06-01T03:28:30.827Z,15.13
2023-06-01T03:30:58.897Z,15.13
2023-06-01T03:33:26.876Z,15.12
2023-06-01T03:35:54.732Z,15.10
2023-06-01T03:38:22.617Z,15.10
2023-06-01T03:40:50.653Z,15.09
2023-06-01T03:43:18.578Z,15.07
2023-06-01T03:45:46.511Z,15.07
2023-06-01T03:48:14.536Z,15.06
2023-06-01T03:50:42.887Z,15.05
2023-06-01T03:53:11.019Z,15.05
2023-06-01T03:55:39.177Z,15.07
2023-06-01T03:58:07.304Z,15.05
2023-06-01T04:00:35.586Z,15.04
2023-06-01T04:03:09.586Z,14.98
2023-06-01T04:05:39.107Z,14.97
2023-06-01T04:08:07.174Z,14.93
2023-06-01T04:10:35.133Z,14.95
2023-06-01T04:13:03.059Z,14.90
2023-06-01T04:15:30.988Z,14.90
2023-06-01T04:17:58.966Z,14.88
2023-06-01T04:20:26.916Z,14.88
2023-06-01T04:22:54.963Z,14.86
2023-06-01T04:25:23.004Z,14.86
2023-06-01T04:27:53.708Z,14.86
2023-06-01T04:30:22.252Z,14.86
2023-06-01T04:32:50.960Z,14.85
2023-06-01T04:35:19.121Z,14.81
2023-06-01T04:37:47.353Z,14.77
2023-06-01T04:40:15.822Z,14.78
2023-06-01T04:42:51.358Z,14.75
2023-06-01T04:45:21.306Z,14.75
2023-06-01T04:47:50.312Z,14.75
2023-06-01T04:50:18.833Z,14.71
2023-06-01T04:52:47.317Z,14.72
2023-06-01T04:55:16.044Z,14.73
2023-06-01T04:57:46.903Z,14.72
2023-06-01T05:00:20.255Z,14.75
2023-06-01T05:02:50.463Z,14.75
2023-06-01T05:05:19.193Z,14.78
2023-06-01T05:07:47.250Z,14.83
2023-06-01T05:10:15.453Z,14.88
2023-06-01T05:12:43.506Z,14.92
2023-06-01T05:15:13.488Z,14.98
2023-06-01T05:17:41.516Z,15.01
2023-06-01T05:20:11.445Z,15.05
2023-06-01T05:22:40.054Z,15.10
2023-06-01T05:25:08.509Z,15.14
2023-06-01T05:27:36.747Z,15.19
2023-06-01T05:30:05.070Z,15.28
2023-06-01T05:32:33.024Z,15.33
2023-06-01T05:35:00.975Z,15.37
2023-06-01T05:37:28.905Z,15.45
2023-06-01T05:39:56.958Z,15.52
2023-06-01T05:42:25.001Z,15.60
2023-06-01T05:44:52.877Z,15.69
2023-06-01T05:47:20.819Z,15.79
2023-06-01T05:49:48.769Z,15.89
2023-06-01T05:52:16.906Z,16.04
2023-06-01T05:54:45.023Z,16.18
2023-06-01T05:57:12.911Z,16.35
2023-06-01T05:59:40.807Z,16.56
2023-06-01T06:02:08.695Z,16.77
2023-06-01T06:04:36.661Z,16.87
2023-06-01T06:07:04.758Z,16.96
2023-06-01T06:09:32.677Z,17.08
2023-06-01T06:12:00.826Z,17.16
2023-06-01T06:14:28.858Z,17.25
2023-06-01T06:16:57.480Z,17.29
2023-06-01T06:19:25.450Z,17.34
2023-06-01T06:21:53.470Z,17.35
2023-06-01T06:24:21.697Z,17.39
2023-06-01T06:26:49.809Z,17.43
2023-06-01T06:29:17.776Z,17.50
2023-06-01T06:31:46.909Z,17.52
2023-06-01T06:34:15.397Z,17.52
2023-06-01T06:36:43.738Z,17.55
2023-06-01T06:39:11.673Z,17.59
2023-06-01T06:41:39.670Z,17.64
2023-06-01T06:44:07.568Z,17.69
2023-06-01T06:46:35.683Z,17.75
2023-06-01T06:49:03.597Z,17.72
2023-06-01T06:51:31.616Z,17.77
2023-06-01T06:54:00.814Z,17.81
2023-06-01T06:56:28.928Z,17.82
2023-06-01T06:59:06.814Z,17.82
2023-06-01T07:01:40.250Z,17.82
2023-06-01T07:04:09.918Z,17.85
2023-06-01T07:06:38.221Z,17.89
2023-06-01T07:09:08.190Z,17.90
2023-06-01T07:11:36.213Z,17.93
2023-06-01T07:14:04.114Z,17.94
2023-06-01T07:16:32.042Z,18.00
2023-06-01T07:19:00.072Z,18.03
2023-06-01T07:21:28.518Z,18.09
2023-06-01T07:23:56.535Z,18.09
2023-06-01T07:26:27.722Z,18.11
2023-06-01T07:28:57.210Z,18.20
2023-06-01T07:31:26.916Z,18.25
2023-06-01T07:33:55.324Z,18.32
2023-06-01T07:36:25.879Z,18.39
2023-06-01T07:38:54.356Z,18.43
2023-06-01T07:41:22.382Z,18.48
2023-06-01T07:43:50.344Z,18.55
2023-06-01T07:46:18.515Z,18.61
2023-06-01T07:48:46.448Z,18.66
2023-06-01T07:51:14.349Z,18.72
2023-06-01T07:53:42.430Z,18.80
2023-06-01T07:56:10.330Z,18.87
2023-06-01T07:58:39.013Z,18.94
2023-06-01T08:01:07.319Z,19.01
2023-06-01T08:03:35.939Z,19.08
2023-06-01T08:06:05.182Z,19.16
2023-06-01T08:08:34.156Z,19.22
2023-06-01T08:11:02.112Z,19.29
2023-06-01T08:13:30.062Z,19.38
2023-06-01T08:15:58.072Z,19.43
2023-06-01T08:18:27.335Z,19.52
2023-06-01T08:20:55.353Z,19.60
2023-06-01T08:23:24.949Z,19.69
2023-06-01T08:25:52.985Z,19.77
2023-06-01T08:28:20.863Z,19.83
2023-06-01T08:30:48.819Z,19.92
2023-06-01T08:33:17.641Z,19.99
2023-06-01T08:35:45.804Z,20.10
2023-06-01T08:38:13.752Z,20.14
2023-06-01T08:40:43.025Z,20.19
2023-06-01T08:43:17.248Z,20.31
2023-06-01T08:45:46.480Z,20.41
2023-06-01T08:48:23.391Z,20.48
2023-06-01T08:50:54.513Z,20.56
2023-06-01T08:53:26.462Z,20.63
2023-06-01T08:55:55.405Z,20.69
2023-06-01T08:58:23.602Z,20.79
2023-06-01T09:00:53.404Z,20.85
2023-06-01T09:03:22.099Z,20.91
2023-06-01T09:05:50.243Z,20.98
2023-06-01T09:08:18.519Z,21.04
2023-06-01T09:10:46.531Z,21.11
2023-06-01T09:13:14.462Z,21.18
2023-06-01T09:15:57.663Z,21.22
2023-06-01T09:18:25.575Z,21.28
2023-06-01T09:20:55.861Z,21.34
2023-06-01T09:23:28.226Z,21.45
2023-06-01T09:26:08.779Z,21.50
2023-06-01T09:28:59.411Z,21.61
2023-06-01T09:31:47.927Z,21.70
2023-06-01T09:34:21.924Z,21.78
2023-06-01T09:36:54.791Z,21.84
2023-06-01T09:39:25.371Z,21.88
2023-06-01T09:41:58.507Z,21.97
2023-06-01T09:44:30.267Z,22.01
2023-06-01T09:47:00.484Z,22.07
2023-06-01T09:49:31.020Z,22.14
2023-06-01T09:52:08.154Z,22.18
2023-06-01T09:54:46.559Z,22.25
2023-06-01T09:57:15.522Z,22.33
2023-06-01T09:59:48.209Z,22.35
2023-06-01T10:02:21.449Z,22.42
2023-06-01T10:05:01.027Z,22.52
2023-06-01T10:07:32.224Z,22.52
2023-06-01T10:10:04.852Z,22.55
2023-06-01T10:12:34.829Z,22.61
2023-06-01T10:15:07.422Z,22.68
2023-06-01T10:17:44.908Z,22.70
2023-06-01T10:20:17.298Z,22.75
2023-06-01T10:22:45.643Z,22.80
2023-06-01T10:25:17.357Z,22.86
2023-06-01T10:28:05.815Z,22.84
2023-06-01T10:30:33.786Z,22.90
2023-06-01T10:33:02.022Z,22.93
2023-06-01T10:35:36.016Z,22.95
2023-06-01T10:38:09.792Z,22.98
2023-06-01T10:40:49.042Z,23.02
2023-06-01T10:43:38.435Z,23.07
2023-06-01T10:46:26.351Z,23.09
2023-06-01T10:48:59.689Z,23.15
2023-06-01T10:51:28.395Z,23.24
2023-06-01T10:53:56.906Z,23.32
2023-06-01T10:56:29.580Z,23.39
2023-06-01T11:01:45.776Z,23.61
2023-06-01T11:04:15.565Z,23.70
2023-06-01T11:06:45.743Z,23.77
2023-06-01T11:09:14.567Z,23.80
2023-06-01T11:11:54.456Z,23.87
2023-06-01T11:14:26.423Z,23.92
2023-06-01T11:16:56.901Z,23.98
2023-06-01T11:19:30.147Z,24.07
2023-06-01T11:22:03.115Z,24.09
2023-06-01T11:24:36.583Z,24.16
2023-06-01T11:27:10.258Z,24.22
2023-06-01T11:29:39.549Z,24.27
2023-06-01T11:32:08.798Z,24.32
2023-06-01T11:34:43.582Z,24.37
2023-06-01T11:37:16.252Z,24.45
2023-06-01T11:39:44.236Z,24.55
2023-06-01T11:42:14.906Z,24.60
2023-06-01T11:44:44.662Z,24.71
2023-06-01T11:47:14.342Z,24.79
2023-06-01T11:49:51.480Z,24.87
2023-06-01T11:52:20.573Z,24.93
2023-06-01T11:54:49.856Z,24.99
2023-06-01T11:57:18.461Z,25.05
2023-06-01T11:59:48.811Z,25.11
2023-06-01T12:02:32.600Z,25.13
2023-06-01T12:05:01.614Z,25.17
2023-06-01T12:07:30.287Z,25.25
2023-06-01T12:10:00.655Z,25.31
2023-06-01T12:12:31.122Z,25.36
2023-06-01T12:14:59.262Z,25.42
2023-06-01T12:17:28.176Z,25.48
2023-06-01T12:19:56.402Z,25.54
2023-06-01T12:22:34.906Z,25.59
2023-06-01T12:25:08.388Z,25.61
2023-06-01T12:27:38.575Z,25.67
2023-06-01T12:30:22.538Z,25.73
2023-06-01T12:32:50.659Z,25.82
2023-06-01T12:35:20.340Z,25.86
2023-06-01T12:38:08.099Z,25.88
2023-06-01T12:40:37.564Z,25.90
2023-06-01T12:43:10.370Z,25.93
2023-06-01T12:45:39.242Z,25.96
2023-06-01T12:48:08.024Z,25.96
2023-06-01T12:50:36.210Z,26.02
2023-06-01T12:53:04.965Z,25.98
2023-06-01T12:55:32.880Z,26.01
2023-06-01T12:58:01.144Z,26.02
2023-06-01T13:00:39.363Z,26.05
2023-06-01T13:03:17.464Z,26.05
2023-06-01T13:05:48.962Z,26.06
2023-06-01T13:08:18.371Z,26.10
2023-06-01T13:10:46.969Z,26.10
2023-06-01T13:13:15.145Z,26.07
2023-06-01T13:15:44.052Z,26.02
2023-06-01T13:18:12.077Z,26.06
2023-06-01T13:20:41.845Z,26.13
2023-06-01T13:23:11.017Z,26.18
2023-06-01T13:25:40.173Z,26.21
2023-06-01T13:28:10.225Z,26.17
2023-06-01T13:30:38.412Z,26.11
2023-06-01T13:33:06.529Z,26.09
2023-06-01T13:35:34.890Z,26.10
2023-06-01T13:38:02.933Z,26.12
2023-06-01T13:40:30.929Z,26.12
2023-06-01T13:42:59.594Z,26.17
2023-06-01T13:45:27.639Z,26.20
2023-06-01T13:47:57.510Z,26.23
2023-06-01T13:50:25.612Z,26.23
2023-06-01T13:52:55.078Z,26.21
2023-06-01T13:55:23.756Z,26.17
2023-06-01T13:57:52.708Z,26.11
2023-06-01T14:00:22.564Z,26.00
2023-06-01T14:02:51.063Z,25.91
2023-06-01T14:05:25.599Z,25.89
2023-06-01T14:07:59.971Z,25.91
2023-06-01T14:10:28.055Z,25.93
2023-06-01T14:12:56.062Z,25.92
2023-06-01T14:15:24.059Z,25.90
2023-06-01T14:17:52.777Z,25.96
2023-06-01T14:20:20.813Z,26.00
2023-06-01T14:22:48.724Z,26.05
2023-06-01T14:25:17.030Z,26.05
2023-06-01T14:27:45.116Z,26.00
2023-06-01T14:30:13.515Z,26.00
2023-06-01T14:32:41.694Z,25.95
2023-06-01T14:35:10.574Z,25.86
2023-06-01T14:37:49.031Z,25.83
2023-06-01T14:40:18.503Z,25.78
2023-06-01T14:42:47.120Z,25.79
2023-06-01T14:45:15.898Z,25.85
2023-06-01T14:47:43.946Z,25.89
2023-06-01T14:50:12.608Z,26.00
2023-06-01T14:52:40.704Z,26.09
2023-06-01T14:55:09.198Z,26.18
2023-06-01T14:57:37.536Z,26.29
2023-06-01T15:00:07.397Z,26.40
2023-06-01T15:02:35.521Z,26.52
2023-06-01T15:05:04.190Z,26.58
2023-06-01T15:07:32.228Z,26.66
2023-06-01T15:10:00.174Z,26.68
2023-06-01T15:12:28.192Z,26.72
2023-06-01T15:14:56.168Z,26.76
2023-06-01T15:17:24.362Z,26.81
2023-06-01T15:19:52.530Z,26.79
2023-06-01T15:22:20.618Z,26.79
2023-06-01T15:24:48.590Z,26.83
2023-06-01T15:27:16.481Z,26.90
2023-06-01T15:29:44.454Z,26.99
2023-06-01T15:32:12.369Z,27.05
2023-06-01T15:34:43.764Z,27.04
2023-06-01T15:37:13.305Z,26.99
2023-06-01T15:39:41.693Z,26.99
2023-06-01T15:42:11.462Z,27.00
2023-06-01T15:44:44.584Z,27.09
2023-06-01T15:47:13.756Z,27.17
2023-06-01T15:49:42.360Z,27.23
2023-06-01T15:52:10.835Z,27.29
2023-06-01T15:54:38.830Z,27.38
2023-06-01T15:57:07.760Z,27.45
2023-06-01T15:59:35.846Z,27.45
2023-06-01T16:02:04.199Z,27.38
2023-06-01T16:04:32.823Z,27.39
2023-06-01T16:07:00.860Z,27.29
2023-06-01T16:09:28.870Z,27.20
2023-06-01T16:11:56.865Z,27.08
2023-06-01T16:14:24.861Z,26.92
2023-06-01T16:16:53.096Z,26.87
2023-06-01T16:19:21.299Z,26.88
2023-06-01T16:21:49.628Z,26.93
2023-06-01T16:24:17.625Z,26.97
2023-06-01T16:26:45.664Z,27.03
2023-06-01T16:29:14.042Z,27.09
2023-06-01T16:31:42.038Z,27.07
2023-06-01T16:34:10.316Z,27.09
2023-06-01T16:36:39.056Z,27.16
2023-06-01T16:39:07.779Z,27.21
2023-06-01T16:41:35.763Z,27.23
2023-06-01T16:44:03.681Z,27.29
2023-06-01T16:46:31.581Z,27.30
2023-06-01T16:49:00.434Z,27.30
2023-06-01T16:51:29.673Z,27.34
2023-06-01T16:53:57.898Z,27.16
2023-06-01T16:56:27.044Z,26.95
2023-06-01T16:58:54.989Z,26.75
2023-06-01T17:01:23.046Z,26.62
2023-06-01T17:03:53.850Z,26.48
2023-06-01T17:06:23.054Z,26.27
2023-06-01T17:08:51.054Z,25.82
2023-06-01T17:11:19.068Z,25.46
2023-06-01T17:13:47.100Z,25.17
2023-06-01T17:16:15.829Z,24.80
2023-06-01T17:18:44.193Z,24.53
2023-06-01T17:21:12.256Z,24.30
2023-06-01T17:23:40.205Z,24.14
2023-06-01T17:26:08.226Z,23.98
2023-06-01T17:28:38.704Z,23.87
2023-06-01T17:31:06.749Z,23.75
2023-06-01T17:33:34.772Z,23.61
2023-06-01T17:36:02.915Z,23.47
2023-06-01T17:38:31.199Z,23.36
2023-06-01T17:40:59.211Z,23.19
2023-06-01T17:43:27.336Z,23.03
2023-06-01T17:45:55.377Z,22.93
2023-06-01T17:48:23.461Z,22.85
2023-06-01T17:50:53.496Z,22.72
2023-06-01T17:55:53.524Z,22.47
2023-06-01T17:58:21.395Z,22.36
2023-06-01T18:00:49.360Z,22.26
2023-06-01T18:03:17.449Z,22.13
2023-06-01T18:05:45.535Z,22.09
2023-06-01T18:08:13.559Z,22.02
2023-06-01T18:10:41.585Z,21.97
2023-06-01T18:13:09.969Z,21.90
2023-06-01T18:15:37.938Z,21.84
2023-06-01T18:18:06.257Z,21.76
2023-06-01T18:20:34.212Z,21.71
2023-06-01T18:23:02.290Z,21.66
2023-06-01T18:25:30.291Z,21.59
2023-06-01T18:27:58.261Z,21.53
2023-06-01T18:30:26.216Z,21.48
2023-06-01T18:32:54.191Z,21.43
2023-06-01T18:35:22.148Z,21.36
2023-06-01T18:37:50.191Z,21.26
2023-06-01T18:40:18.569Z,21.21
2023-06-01T18:42:46.588Z,21.16
2023-06-01T18:45:14.616Z,21.11
2023-06-01T18:47:42.703Z,21.07
2023-06-01T18:50:11.301Z,21.00
2023-06-01T18:52:39.298Z,20.95
2023-06-01T18:55:07.604Z,20.89
2023-06-01T18:57:35.578Z,20.85
2023-06-01T19:00:03.597Z,20.83
2023-06-01T19:02:31.594Z,20.77
2023-06-01T19:05:04.089Z,20.72
2023-06-01T19:07:37.644Z,20.68
2023-06-01T19:10:10.547Z,20.65
2023-06-01T19:12:38.998Z,20.61
2023-06-01T19:15:13.647Z,20.55
2023-06-01T19:17:42.315Z,20.54
2023-06-01T19:20:49.292Z,20.51
2023-06-01T19:23:17.685Z,20.47
2023-06-01T19:25:45.776Z,20.44
2023-06-01T19:28:13.735Z,20.41
2023-06-01T19:30:41.915Z,20.39
2023-06-01T19:33:09.936Z,20.40
2023-06-01T19:35:37.914Z,20.37
2023-06-01T19:38:05.834Z,20.37
2023-06-01T19:40:33.869Z,20.37
2023-06-01T19:43:02.176Z,20.36
2023-06-01T19:45:30.306Z,20.34
2023-06-01T19:47:58.478Z,20.35
2023-06-01T19:50:36.019Z,20.35
2023-06-01T19:53:05.857Z,20.33
2023-06-01T19:55:34.701Z,20.35
2023-06-01T19:58:02.775Z,20.36
2023-06-01T20:00:33.608Z,20.35
2023-06-01T20:03:02.037Z,20.36
2023-06-01T20:05:30.391Z,20.34
2023-06-01T20:08:02.341Z,20.33
2023-06-01T20:10:34.098Z,20.33
2023-06-01T20:13:05.317Z,20.31
2023-06-01T20:15:39.476Z,20.31
2023-06-01T20:18:08.607Z,20.29
2023-06-01T20:20:38.590Z,20.27
2023-06-01T20:23:11.083Z,20.27
2023-06-01T20:25:44.049Z,20.24
2023-06-01T20:28:14.837Z,20.22
2023-06-01T20:31:06.584Z,20.20
2023-06-01T20:33:36.096Z,20.18
2023-06-01T20:36:07.249Z,20.13
2023-06-01T20:38:36.950Z,20.11
2023-06-01T20:41:13.378Z,20.03
2023-06-01T20:43:42.152Z,20.01
2023-06-01T20:46:15.129Z,19.96
2023-06-01T20:48:47.162Z,19.92
2023-06-01T20:51:29.116Z,19.88
2023-06-01T20:54:00.134Z,19.84
2023-06-01T20:56:33.644Z,19.79
2023-06-01T20:59:07.513Z,19.73
2023-06-01T21:01:38.297Z,19.71
2023-06-01T21:04:09.208Z,19.67
2023-06-01T21:06:37.785Z,19.62
2023-06-01T21:09:08.839Z,19.56
2023-06-01T21:11:37.589Z,19.52
2023-06-01T21:14:06.048Z,19.46
2023-06-01T21:16:34.107Z,19.42
2023-06-01T21:19:02.462Z,19.36
2023-06-01T21:21:30.549Z,19.32
2023-06-01T21:23:58.756Z,19.25
2023-06-01T21:26:28.022Z,19.23
2023-06-01T21:28:56.203Z,19.19
2023-06-01T21:31:24.222Z,19.15
2023-06-01T21:33:52.501Z,19.09
2023-06-01T21:36:20.593Z,19.05
2023-06-01T21:38:48.649Z,19.01
2023-06-01T21:41:16.806Z,18.95
2023-06-01T21:43:44.746Z,18.87
2023-06-01T21:46:12.772Z,18.83
2023-06-01T21:48:40.872Z,18.81
2023-06-01T21:51:08.977Z,18.74
2023-06-01T21:53:37.053Z,18.69
2023-06-01T21:56:05.252Z,18.65
2023-06-01T21:58:39.326Z,18.60
2023-06-01T22:01:08.182Z,18.56
2023-06-01T22:03:36.310Z,18.51
2023-06-01T22:06:04.931Z,18.47
2023-06-01T22:08:33.120Z,18.41
2023-06-01T22:11:01.183Z,18.35
2023-06-01T22:13:29.186Z,18.29
2023-06-01T22:15:57.177Z,18.23
2023-06-01T22:18:25.278Z,18.16
2023-06-01T22:20:53.319Z,18.13
2023-06-01T22:23:21.335Z,18.10
2023-06-01T22:25:49.439Z,18.08
2023-06-01T22:28:17.454Z,18.04
2023-06-01T22:30:45.456Z,18.00
2023-06-01T22:33:13.455Z,17.96
2023-06-01T22:35:41.513Z,17.91
2023-06-01T22:38:09.529Z,17.87
2023-06-01T22:40:37.476Z,17.84
2023-06-01T22:43:05.470Z,17.80
2023-06-01T22:45:33.512Z,17.76
2023-06-01T22:48:01.669Z,17.71
2023-06-01T22:50:29.669Z,17.69
2023-06-01T22:52:57.639Z,17.64
2023-06-01T22:55:25.772Z,17.60
2023-06-01T22:57:53.868Z,17.56
2023-06-01T23:00:22.082Z,17.54
2023-06-01T23:02:50.110Z,17.53
2023-06-01T23:05:19.280Z,17.50
2023-06-01T23:07:48.376Z,17.47
2023-06-01T23:10:19.344Z,17.46
2023-06-01T23:12:50.814Z,17.43
2023-06-01T23:15:19.073Z,17.41
2023-06-01T23:17:48.095Z,17.37
2023-06-01T23:20:18.529Z,17.36
2023-06-01T23:22:47.487Z,17.34
2023-06-01T23:25:17.173Z,17.30
2023-06-01T23:27:45.191Z,17.27
2023-06-01T23:30:13.784Z,17.29
2023-06-01T23:32:41.807Z,17.27
2023-06-01T23:35:10.424Z,17.24
2023-06-01T23:37:40.092Z,17.25
2023-06-01T23:40:08.902Z,17.23
2023-06-01T23:42:36.909Z,17.23
2023-06-01T23:45:05.204Z,17.24
2023-06-01T23:47:33.411Z,17.22
2023-06-01T23:50:02.365Z,17.21
2023-06-01T23:52:30.335Z,17.19
2023-06-01T23:54:59.038Z,17.18
2023-06-01T23:57:27.805Z,17.20
2023-06-01T23:59:55.859Z,17.19
